Dybbol, Denmark
Current Conditions -  °F | °C
As of 7:50 AM on Monday 22 Dec 2014 (Local Time) from EKSB Reporting Station
Moderate Rain Moderate Rain  
Wind Chill: 50°   Ceiling: 800
Heat Index: 50°   Visibility: 2.5mi
Dew Point: 48°   Wind: 20mph
Humidity: 94%   Direction: 250°WSW
Pressure: 29.56"   Gusts: 31mph
Location:  54.91°N, 9.74°E
Report Text: EKSB 220650Z 25017G27KT 4000 RA BKN008 10/09 Q1001
Loading
Personal Weather Stations






























Interactive Weather Map New forecast layout! Learn more

10-Day Weather Forecast

Advertisements
Track Severe Weather on mobile